Terminal Aerodrome Forecast
Issued by NWS

Home | Current Version | Previous Version | Graphics & Text | Print | Product List | Glossary On
Versions: 1 2 3 4 5 6 7 8 9 10 11 12 13 14 15 16 17 18 19 20 21
542
FTUS43 KICT 221738
TAFRSL
TAF
KRSL 221738Z 2218/2318 18019G29KT P6SM SCT250
     FM230100 16012KT P6SM FEW250
     FM230700 17012KT P6SM VCTS SCT060CB BKN250
     FM231100 17014KT P6SM SCT120
     FM231500 18018G28KT P6SM SCT200=

USA.gov is the U.S. government's official web portal to all federal, state and local government web resources and services.